Time;durP1;ratioP1;P1;durP2;ratioP2;P2;SDS_P1;SDS_P2;PMS_P1;PMS_P2;Temp;Humidity;BMP_temperature;BMP_pressure;BME280_temperature;BME280_humidity;BME280_pressure;Samples;Min_cycle;Max_cycle;Signal;HPM_P1;HPM_P2
2021/04/10 00:00:50;;;;;;;14.67;13.20;;;;;20.20;100033.00;;;;2072328;28;20210;-45
2021/04/10 00:01:51;;;;;;;15.27;13.40;;;;;20.20;100035.00;;;;2069767;28;20695;-45
2021/04/10 00:02:51;;;;;;;15.17;13.47;;;;;20.20;100028.00;;;;2073119;28;20210;-46
2021/04/10 00:03:51;;;;;;;14.83;13.00;;;;;20.20;100032.00;;;;2069247;28;20211;-45
2021/04/10 00:04:52;;;;;;;15.80;14.20;;;;;20.20;100033.00;;;;2073797;28;20211;-45
2021/04/10 00:05:52;;;;;;;13.67;12.37;;;;;20.20;100036.00;;;;2074552;28;20329;-45
2021/04/10 00:06:53;;;;;;;14.23;12.73;;;;;20.20;100035.00;;;;2072748;28;20682;-45
2021/04/10 00:07:53;;;;;;;14.73;11.70;;;;;20.20;100038.00;;;;2078420;28;20205;-45
2021/04/10 00:08:53;;;;;;;15.03;13.07;;;;;20.00;100037.00;;;;2070890;28;20215;-45
2021/04/10 00:09:54;;;;;;;14.30;12.43;;;;;20.20;100035.00;;;;2073243;28;20222;-45
2021/04/10 00:10:54;;;;;;;12.60;11.30;;;;;20.20;100037.00;;;;2074075;28;20277;-45
2021/04/10 00:11:54;;;;;;;14.50;12.43;;;;;20.20;100039.00;;;;2074444;28;20374;-45
2021/04/10 00:12:55;;;;;;;13.83;12.30;;;;;20.20;100034.00;;;;2074291;28;20306;-45
2021/04/10 00:13:56;;;;;;;13.80;12.30;;;;;20.20;100036.00;;;;2072295;28;20624;-45
2021/04/10 00:14:56;;;;;;;12.53;11.23;;;;;20.20;100037.00;;;;2073418;28;20210;-45
2021/04/10 00:15:57;;;;;;;13.47;12.20;;;;;20.20;100023.00;;;;2074494;28;20297;-45
2021/04/10 00:16:57;;;;;;;12.77;11.50;;;;;20.10;100028.00;;;;2074325;28;20210;-45
2021/04/10 00:17:57;;;;;;;12.87;11.67;;;;;20.10;100032.00;;;;2076540;28;20213;-45
2021/04/10 00:18:58;;;;;;;12.87;11.40;;;;;20.10;100026.00;;;;2077517;28;20639;-45
2021/04/10 00:19:58;;;;;;;12.83;11.50;;;;;20.10;100033.00;;;;2074252;28;20979;-45
2021/04/10 00:20:58;;;;;;;13.13;11.50;;;;;20.10;100030.00;;;;2074099;28;20214;-45
2021/04/10 00:21:59;;;;;;;12.77;11.10;;;;;20.10;100025.00;;;;2070962;28;20215;-45
2021/04/10 00:22:59;;;;;;;12.20;11.00;;;;;20.10;100026.00;;;;2073847;28;20237;-45
2021/04/10 00:24:00;;;;;;;12.37;11.07;;;;;20.10;100019.00;;;;2071977;28;20241;-45
2021/04/10 00:25:00;;;;;;;12.63;11.20;;;;;20.10;100026.00;;;;2073148;28;20264;-47
2021/04/10 00:26:01;;;;;;;12.70;11.40;;;;;20.10;100029.00;;;;2073416;28;20607;-45
2021/04/10 00:27:01;;;;;;;14.33;11.23;;;;;20.10;100031.00;;;;2071325;28;20240;-45
2021/04/10 00:28:01;;;;;;;11.20;10.00;;;;;20.10;100031.00;;;;2069977;28;20289;-45
2021/04/10 00:29:02;;;;;;;12.70;11.27;;;;;20.10;100021.00;;;;2073838;28;20230;-45
2021/04/10 00:30:06;;;;;;;12.67;11.37;;;;;20.10;100030.00;;;;2073287;28;20210;-46
2021/04/10 00:31:07;;;;;;;11.27;10.18;;;;;20.10;100037.00;;;;2070058;28;20302;-46
2021/04/10 00:32:07;;;;;;;10.90;9.80;;;;;20.10;100024.00;;;;2071988;28;20211;-45
2021/04/10 00:33:08;;;;;;;12.70;11.40;;;;;20.10;100031.00;;;;2075853;28;20240;-45
2021/04/10 00:34:08;;;;;;;11.23;10.23;;;;;20.10;100030.00;;;;2073008;28;20214;-45
2021/04/10 00:35:09;;;;;;;11.37;10.27;;;;;20.10;100033.00;;;;2074191;28;20242;-45
2021/04/10 00:36:09;;;;;;;11.53;10.27;;;;;20.10;100034.00;;;;2074056;28;20213;-45
2021/04/10 00:37:10;;;;;;;11.07;10.07;;;;;20.10;100034.00;;;;2069829;28;20681;-45
2021/04/10 00:38:10;;;;;;;11.43;10.23;;;;;20.10;100028.00;;;;2073962;28;20218;-45
2021/04/10 00:39:10;;;;;;;12.93;9.60;;;;;20.00;100038.00;;;;2073545;28;20229;-45
2021/04/10 00:40:11;;;;;;;12.13;11.03;;;;;20.10;100034.00;;;;2072480;28;20650;-45
2021/04/10 00:41:12;;;;;;;10.97;9.97;;;;;20.10;100040.00;;;;2074068;28;20324;-45
2021/04/10 00:42:12;;;;;;;12.03;10.77;;;;;20.10;100039.00;;;;2074346;28;20293;-45
2021/04/10 00:43:13;;;;;;;12.00;10.80;;;;;20.10;100039.00;;;;2069610;28;20595;-45
2021/04/10 00:44:13;;;;;;;11.67;10.53;;;;;20.00;100046.00;;;;2070340;28;20847;-45
2021/04/10 00:45:13;;;;;;;11.10;10.00;;;;;20.10;100047.00;;;;2074201;28;20225;-45
2021/04/10 00:46:14;;;;;;;11.50;10.40;;;;;20.10;100042.00;;;;2074339;28;20226;-45
2021/04/10 00:47:14;;;;;;;11.50;10.23;;;;;20.00;100045.00;;;;2077417;28;20253;-45
2021/04/10 00:48:15;;;;;;;11.10;10.10;;;;;20.10;100049.00;;;;2078874;28;20705;-45
2021/04/10 00:49:15;;;;;;;10.27;9.27;;;;;20.00;100048.00;;;;2076601;28;20287;-45
2021/04/10 00:50:15;;;;;;;10.80;9.80;;;;;20.00;100054.00;;;;2075172;28;20218;-44
2021/04/10 00:51:16;;;;;;;11.00;9.90;;;;;20.00;100048.00;;;;2075417;28;20659;-45
2021/04/10 00:52:16;;;;;;;10.90;9.73;;;;;20.00;100056.00;;;;2075347;28;20225;-45
2021/04/10 00:53:17;;;;;;;11.00;10.00;;;;;20.00;100048.00;;;;2073909;28;20704;-45
2021/04/10 00:54:18;;;;;;;11.07;9.53;;;;;20.00;100041.00;;;;2068068;28;20233;-45
2021/04/10 00:55:18;;;;;;;10.57;9.67;;;;;20.00;100046.00;;;;2074648;28;20530;-45
2021/04/10 00:56:19;;;;;;;9.80;8.77;;;;;20.00;100047.00;;;;2071338;28;20265;-45
2021/04/10 00:57:19;;;;;;;9.20;8.20;;;;;20.00;100043.00;;;;2066684;28;20211;-44
2021/04/10 00:58:22;;;;;;;10.87;9.73;;;;;20.00;100042.00;;;;2074996;28;20214;-51
2021/04/10 00:59:23;;;;;;;11.07;9.82;;;;;20.00;100038.00;;;;2075770;28;20927;-45
2021/04/10 01:00:23;;;;;;;9.43;8.60;;;;;20.00;100038.00;;;;2075920;28;20222;-45
2021/04/10 01:01:23;;;;;;;10.77;9.77;;;;;20.00;100025.00;;;;2074446;28;20715;-45
2021/04/10 01:02:24;;;;;;;10.33;9.27;;;;;20.00;100036.00;;;;2070787;28;20253;-45
2021/04/10 01:03:24;;;;;;;10.63;9.53;;;;;20.00;100043.00;;;;2071797;28;20230;-45
2021/04/10 01:04:25;;;;;;;10.53;9.50;;;;;20.00;100033.00;;;;2074594;28;20222;-45
2021/04/10 01:05:25;;;;;;;10.17;9.13;;;;;20.00;100035.00;;;;2075450;28;20310;-45
2021/04/10 01:06:26;;;;;;;10.23;9.20;;;;;20.00;100035.00;;;;2074937;28;20379;-45
2021/04/10 01:07:26;;;;;;;9.47;8.67;;;;;20.00;100033.00;;;;2068246;28;20220;-45
2021/04/10 01:08:30;;;;;;;10.27;9.27;;;;;20.00;100027.00;;;;2070845;28;20462;-45
2021/04/10 01:09:30;;;;;;;10.45;9.45;;;;;20.00;100038.00;;;;2074942;28;20224;-45
2021/04/10 01:10:31;;;;;;;10.37;9.37;;;;;20.00;100040.00;;;;2076170;28;20237;-45
2021/04/10 01:11:33;;;;;;;9.90;8.90;;;;;20.00;100029.00;;;;2064527;28;20218;-45
2021/04/10 01:12:45;;;;;;;10.23;9.27;;;;;20.00;100033.00;;;;2066542;28;20302;-45
2021/04/10 01:13:51;;;;;;;9.93;8.93;;;;;20.00;99990.00;;;;2068796;28;20288;-45
2021/04/10 01:15:09;;;;;;;9.93;8.93;;;;;20.00;100034.00;;;;2071479;28;20650;-45
2021/04/10 01:16:19;;;;;;;9.60;8.70;;;;;20.00;100033.00;;;;2062679;28;20215;-45
2021/04/10 01:17:23;;;;;;;10.38;9.38;;;;;20.00;100033.00;;;;2070580;28;20214;-45
2021/04/10 01:18:25;;;;;;;9.48;8.57;;;;;19.90;100034.00;;;;2070724;28;20214;-46
2021/04/10 01:19:50;;;;;;;9.70;8.80;;;;;19.90;100033.00;;;;2068637;28;20261;-45
2021/04/10 01:21:03;;;;;;;9.93;9.00;;;;;19.90;100031.00;;;;2070457;28;20313;-45
2021/04/10 01:22:12;;;;;;;10.50;8.95;;;;;19.90;100038.00;;;;2074857;28;20218;-45
2021/04/10 01:23:37;;;;;;;9.57;8.77;;;;;19.90;100029.00;;;;2064826;28;20688;-45
2021/04/10 01:25:00;;;;;;;9.80;8.90;;;;;19.90;100025.00;;;;2074629;28;20206;-45
2021/04/10 01:26:00;;;;;;;10.05;9.13;;;;;19.90;100030.00;;;;2080479;28;20216;-46
2021/04/10 01:27:01;;;;;;;9.70;8.70;;;;;20.00;100030.00;;;;2072271;28;20237;-46
2021/04/10 01:28:01;;;;;;;9.73;8.83;;;;;19.90;100033.00;;;;2074860;28;20206;-45
2021/04/10 01:29:03;;;;;;;10.13;8.50;;;;;19.90;100036.00;;;;2073549;28;20830;-46
2021/04/10 01:30:19;;;;;;;8.60;7.90;;;;;19.90;100042.00;;;;2066272;28;20285;-46
2021/04/10 01:31:22;;;;;;;10.10;9.20;;;;;19.90;100034.00;;;;2074617;28;20215;-45
2021/04/10 01:32:23;;;;;;;9.25;8.40;;;;;19.90;100032.00;;;;2075543;28;20221;-45
2021/04/10 01:33:23;;;;;;;9.77;8.87;;;;;19.90;100029.00;;;;2075199;28;20714;-45
2021/04/10 01:34:29;;;;;;;10.00;9.20;;;;;19.90;100029.00;;;;2073931;28;20593;-45
2021/04/10 01:35:35;;;;;;;9.13;8.23;;;;;19.90;100027.00;;;;2074420;28;20210;-46
2021/04/10 01:36:36;;;;;;;8.25;7.50;;;;;19.90;100036.00;;;;2066111;28;20306;-45
2021/04/10 01:37:40;;;;;;;9.13;8.32;;;;;19.70;100030.00;;;;2058519;28;20243;-45
2021/04/10 01:38:41;;;;;;;9.07;8.27;;;;;19.90;100035.00;;;;2058608;28;20618;-45
2021/04/10 01:39:42;;;;;;;8.80;7.93;;;;;19.90;100033.00;;;;2057877;28;20212;-45
2021/04/10 01:40:42;;;;;;;9.00;8.20;;;;;19.90;100032.00;;;;2042392;28;20552;-45
2021/04/10 01:41:45;;;;;;;8.40;7.60;;;;;19.90;100035.00;;;;2069471;28;20215;-45
2021/04/10 01:42:45;;;;;;;9.18;8.38;;;;;19.90;100017.00;;;;2072831;28;20698;-45
2021/04/10 01:43:46;;;;;;;8.90;8.00;;;;;19.90;100033.00;;;;2077438;28;20353;-45
2021/04/10 01:44:46;;;;;;;8.80;8.00;;;;;19.90;100032.00;;;;2066561;28;20293;-45
2021/04/10 01:45:46;;;;;;;9.93;8.93;;;;;19.90;100024.00;;;;2066514;28;20210;-45
2021/04/10 01:46:47;;;;;;;9.43;8.53;;;;;19.90;100034.00;;;;2066276;28;20643;-45
2021/04/10 01:47:48;;;;;;;8.47;7.60;;;;;19.90;100032.00;;;;2075134;28;20219;-45
2021/04/10 01:48:48;;;;;;;9.57;8.67;;;;;19.90;100041.00;;;;2074275;28;20218;-46
2021/04/10 01:49:49;;;;;;;10.00;9.00;;;;;19.90;100041.00;;;;2072304;28;21311;-45
2021/04/10 01:50:49;;;;;;;9.20;8.40;;;;;19.90;100043.00;;;;2066094;28;20233;-45
2021/04/10 01:51:50;;;;;;;9.50;8.60;;;;;19.90;100039.00;;;;2065665;28;20844;-45
2021/04/10 01:52:50;;;;;;;9.20;8.40;;;;;19.90;100039.00;;;;2066070;28;20223;-45
2021/04/10 01:53:50;;;;;;;9.40;8.63;;;;;19.90;100048.00;;;;2073317;28;20245;-45
2021/04/10 01:54:51;;;;;;;9.60;8.80;;;;;19.90;100040.00;;;;2075300;28;20242;-45
2021/04/10 01:55:51;;;;;;;8.70;7.90;;;;;19.80;100034.00;;;;2074544;28;20214;-45
2021/04/10 01:56:52;;;;;;;9.60;8.70;;;;;19.90;100043.00;;;;2066501;28;20230;-45
2021/04/10 01:57:52;;;;;;;9.27;8.27;;;;;19.90;100043.00;;;;2074545;28;20626;-45
2021/04/10 01:58:52;;;;;;;8.43;7.63;;;;;19.90;100052.00;;;;2074351;28;20230;-45
2021/04/10 01:59:53;;;;;;;9.63;8.73;;;;;19.80;100041.00;;;;2073382;28;20674;-45
2021/04/10 02:00:53;;;;;;;9.67;8.77;;;;;19.80;100037.00;;;;2065871;28;20215;-45
2021/04/10 02:01:53;;;;;;;9.03;8.27;;;;;19.80;100034.00;;;;2075332;28;20305;-45
2021/04/10 02:02:54;;;;;;;9.23;8.53;;;;;19.80;100042.00;;;;2068233;28;20214;-45
2021/04/10 02:03:54;;;;;;;9.63;8.73;;;;;19.80;100036.00;;;;2060549;28;20732;-45
2021/04/10 02:04:54;;;;;;;9.83;9.00;;;;;19.80;100040.00;;;;2070014;28;20222;-45
2021/04/10 02:05:55;;;;;;;9.73;8.83;;;;;19.80;100031.00;;;;2066387;28;20222;-45
2021/04/10 02:06:55;;;;;;;9.73;8.73;;;;;19.80;100030.00;;;;2065623;28;20279;-45
2021/04/10 02:07:55;;;;;;;9.33;8.43;;;;;19.80;100038.00;;;;2072502;28;20329;-45
2021/04/10 02:08:56;;;;;;;9.87;9.07;;;;;19.80;100031.00;;;;2075329;28;20335;-45
2021/04/10 02:09:56;;;;;;;9.13;8.33;;;;;19.80;100040.00;;;;2068008;28;20703;-45
2021/04/10 02:10:57;;;;;;;9.93;9.13;;;;;19.80;100040.00;;;;2074288;28;20210;-45
2021/04/10 02:11:57;;;;;;;9.20;8.40;;;;;19.80;100036.00;;;;2066115;28;20229;-45
2021/04/10 02:12:57;;;;;;;9.23;8.40;;;;;19.80;100033.00;;;;2069711;28;20914;-45
2021/04/10 02:13:58;;;;;;;9.33;8.43;;;;;19.80;100035.00;;;;2065196;28;20215;-45
2021/04/10 02:14:59;;;;;;;10.53;9.40;;;;;19.80;100039.00;;;;2074348;28;20230;-45
2021/04/10 02:15:59;;;;;;;9.90;8.93;;;;;19.80;100036.00;;;;2074885;28;20223;-45
2021/04/10 02:16:59;;;;;;;10.10;9.30;;;;;19.80;100046.00;;;;2073190;28;20457;-45
2021/04/10 02:18:00;;;;;;;10.37;9.47;;;;;19.80;100045.00;;;;2067521;28;20227;-45
2021/04/10 02:19:00;;;;;;;10.10;9.17;;;;;19.80;100041.00;;;;2076169;28;20209;-45
2021/04/10 02:20:02;;;;;;;9.53;8.73;;;;;19.80;100042.00;;;;2074936;28;20757;-45
2021/04/10 02:21:07;;;;;;;9.63;8.50;;;;;19.80;100034.00;;;;2071897;28;20280;-46
2021/04/10 02:22:07;;;;;;;10.43;9.52;;;;;19.80;100044.00;;;;2074301;28;20210;-45
2021/04/10 02:23:09;;;;;;;9.63;8.80;;;;;19.80;100043.00;;;;2074884;28;20755;-46
2021/04/10 02:24:11;;;;;;;9.10;8.25;;;;;19.70;100038.00;;;;2073177;28;20229;-45
2021/04/10 02:25:11;;;;;;;9.30;8.40;;;;;19.80;100034.00;;;;2074157;28;20256;-45
2021/04/10 02:26:12;;;;;;;10.07;9.17;;;;;19.80;100033.00;;;;2073769;28;20537;-45
2021/04/10 02:27:12;;;;;;;11.40;10.23;;;;;19.80;100034.00;;;;2075538;28;21077;-45
2021/04/10 02:28:13;;;;;;;9.90;9.03;;;;;19.80;100029.00;;;;2074195;28;21269;-45
2021/04/10 02:29:13;;;;;;;10.03;9.17;;;;;19.80;100037.00;;;;2078509;28;20226;-45
2021/04/10 02:30:14;;;;;;;10.00;9.10;;;;;19.80;100029.00;;;;2078283;28;20726;-45
2021/04/10 02:31:39;;;;;;;9.98;9.13;;;;;19.80;100013.00;;;;2078276;28;20252;-45
2021/04/10 02:32:51;;;;;;;9.73;8.77;;;;;19.80;100026.00;;;;2077049;28;20217;-45
2021/04/10 02:33:52;;;;;;;10.32;9.40;;;;;19.80;100022.00;;;;2076666;28;20283;-45
2021/04/10 02:35:13;;;;;;;10.00;9.10;;;;;19.80;100016.00;;;;2070597;28;20215;-45
2021/04/10 02:36:16;;;;;;;10.40;8.00;;;;;19.80;100014.00;;;;2061778;28;20226;-45
2021/04/10 02:37:16;;;;;;;9.85;8.98;;;;;19.80;100013.00;;;;2070264;28;20684;-45
2021/04/10 02:38:18;;;;;;;10.97;9.87;;;;;19.70;100017.00;;;;2068356;28;20302;-45
2021/04/10 02:39:19;;;;;;;10.88;9.77;;;;;19.70;100020.00;;;;2060622;28;20301;-45
2021/04/10 02:40:20;;;;;;;10.52;9.52;;;;;19.80;100017.00;;;;2065151;28;20215;-45
2021/04/10 02:41:23;;;;;;;10.20;9.30;;;;;19.70;100013.00;;;;2075815;28;20225;-45
2021/04/10 02:42:23;;;;;;;10.75;9.85;;;;;19.70;100023.00;;;;2074191;28;20583;-45
2021/04/10 02:43:28;;;;;;;9.87;9.07;;;;;19.70;100032.00;;;;2068542;28;20223;-45
2021/04/10 02:44:34;;;;;;;11.10;10.20;;;;;19.70;100023.00;;;;2064421;28;20309;-45
2021/04/10 02:45:34;;;;;;;8.90;8.20;;;;;19.70;100022.00;;;;2065452;28;20219;-45
2021/04/10 02:46:36;;;;;;;10.53;9.63;;;;;19.70;100029.00;;;;2065929;28;20687;-45
2021/04/10 02:47:37;;;;;;;11.02;10.13;;;;;19.70;100025.00;;;;2071961;28;20493;-46
2021/04/10 02:48:46;;;;;;;10.47;9.40;;;;;19.70;100031.00;;;;2075854;28;20209;-45
2021/04/10 02:49:50;;;;;;;11.63;10.52;;;;;19.70;100030.00;;;;2076075;28;20229;-45
2021/04/10 02:50:54;;;;;;;9.18;8.45;;;;;19.70;100042.00;;;;2064492;28;20249;-45
2021/04/10 02:51:56;;;;;;;10.60;9.70;;;;;19.70;100040.00;;;;2065035;28;20219;-45
2021/04/10 02:52:56;;;;;;;9.73;8.93;;;;;19.70;100035.00;;;;2067551;28;20622;-45
2021/04/10 02:53:57;;;;;;;10.27;9.40;;;;;19.70;100035.00;;;;2072805;28;20226;-45
2021/04/10 02:54:57;;;;;;;10.60;9.70;;;;;19.70;100030.00;;;;2073022;28;20332;-46
2021/04/10 02:55:58;;;;;;;10.33;9.53;;;;;19.70;100032.00;;;;2064348;28;20705;-45
2021/04/10 02:57:09;;;;;;;9.73;8.83;;;;;19.70;100038.00;;;;2065285;28;20305;-45
2021/04/10 02:58:11;;;;;;;9.25;8.45;;;;;19.70;100046.00;;;;2059333;28;20249;-45
2021/04/10 02:59:11;;;;;;;10.10;9.10;;;;;19.70;100038.00;;;;2066271;28;20223;-45
2021/04/10 03:00:13;;;;;;;9.53;8.73;;;;;19.70;100047.00;;;;2053738;28;20227;-45
2021/04/10 03:01:15;;;;;;;10.30;9.40;;;;;19.70;100036.00;;;;2058011;28;20916;-45
2021/04/10 03:02:16;;;;;;;10.07;9.13;;;;;19.70;100040.00;;;;2069245;28;21148;-45
2021/04/10 03:03:16;;;;;;;8.70;7.90;;;;;19.70;100036.00;;;;2072474;28;20246;-45
2021/04/10 03:04:16;;;;;;;9.53;8.73;;;;;19.70;100034.00;;;;2071804;28;20309;-45
2021/04/10 03:05:17;;;;;;;10.03;9.23;;;;;19.70;100033.00;;;;2073478;28;20241;-45
2021/04/10 03:06:17;;;;;;;8.10;7.40;;;;;19.70;100029.00;;;;2072738;28;20298;-45
2021/04/10 03:07:17;;;;;;;10.07;9.10;;;;;19.70;100048.00;;;;2074509;28;20650;-45
2021/04/10 03:08:19;;;;;;;9.07;8.27;;;;;19.70;100052.00;;;;2076994;28;20719;-46
2021/04/10 03:09:19;;;;;;;9.20;8.40;;;;;19.70;100044.00;;;;2073511;28;20311;-45
2021/04/10 03:10:20;;;;;;;9.43;8.67;;;;;19.70;100054.00;;;;2065023;28;20222;-45
2021/04/10 03:11:20;;;;;;;8.90;8.20;;;;;19.70;100053.00;;;;2069613;28;20214;-45
2021/04/10 03:12:21;;;;;;;10.40;9.30;;;;;19.70;100048.00;;;;2072718;28;20756;-45
2021/04/10 03:13:22;;;;;;;9.67;8.87;;;;;19.70;100055.00;;;;2072921;28;20281;-45
2021/04/10 03:14:22;;;;;;;10.10;9.30;;;;;19.60;100053.00;;;;2070952;28;20450;-45
2021/04/10 03:15:23;;;;;;;9.37;8.57;;;;;19.70;100055.00;;;;2077624;28;20198;-45
2021/04/10 03:16:30;;;;;;;9.93;9.03;;;;;19.30;100054.00;;;;2077417;28;20218;-45
2021/04/10 03:17:30;;;;;;;9.68;8.88;;;;;19.60;100057.00;;;;2077841;28;20218;-45
2021/04/10 03:18:31;;;;;;;11.17;8.90;;;;;19.70;100054.00;;;;2077062;28;20214;-46
2021/04/10 03:19:31;;;;;;;8.53;7.83;;;;;19.60;100056.00;;;;2074296;28;20214;-46
2021/04/10 03:20:32;;;;;;;9.60;8.77;;;;;19.60;100058.00;;;;2067262;28;20257;-45
2021/04/10 03:21:32;;;;;;;9.70;8.80;;;;;19.60;100060.00;;;;2057891;28;20216;-45
2021/04/10 03:22:32;;;;;;;8.77;8.10;;;;;19.70;100060.00;;;;2066032;28;20391;-45
2021/04/10 03:23:33;;;;;;;9.33;8.47;;;;;19.60;100058.00;;;;2073945;28;20221;-45
2021/04/10 03:24:33;;;;;;;9.80;9.00;;;;;19.60;100058.00;;;;2073229;28;20253;-45
2021/04/10 03:25:33;;;;;;;9.20;8.47;;;;;19.60;100064.00;;;;2074056;28;20240;-45
2021/04/10 03:26:34;;;;;;;9.30;8.50;;;;;19.60;100055.00;;;;2061565;28;20215;-45
2021/04/10 03:27:35;;;;;;;8.33;7.57;;;;;19.60;100061.00;;;;2067685;28;20221;-45
2021/04/10 03:28:35;;;;;;;9.17;8.33;;;;;19.60;100060.00;;;;2065695;28;20215;-45
2021/04/10 03:29:36;;;;;;;8.50;7.80;;;;;19.60;100062.00;;;;2069383;28;20873;-45
2021/04/10 03:30:37;;;;;;;9.23;8.33;;;;;19.60;100065.00;;;;2069093;28;21010;-45
2021/04/10 03:31:37;;;;;;;8.40;7.70;;;;;19.60;100062.00;;;;2075031;28;20224;-45
2021/04/10 03:32:38;;;;;;;9.23;8.43;;;;;19.60;100070.00;;;;2075588;28;20514;-45
2021/04/10 03:33:39;;;;;;;9.55;8.75;;;;;19.60;100069.00;;;;2062991;28;20223;-45
2021/04/10 03:34:39;;;;;;;9.10;8.30;;;;;19.60;100070.00;;;;2067903;28;20220;-45
2021/04/10 03:35:39;;;;;;;8.30;7.60;;;;;19.60;100025.00;;;;2065936;28;20306;-45
2021/04/10 03:36:40;;;;;;;8.00;7.40;;;;;19.60;100065.00;;;;2072871;28;20711;-45
2021/04/10 03:37:40;;;;;;;9.10;8.30;;;;;19.60;100070.00;;;;2073667;28;20314;-45
2021/04/10 03:38:41;;;;;;;8.87;8.17;;;;;19.60;100067.00;;;;2075841;28;20228;-45
2021/04/10 03:39:42;;;;;;;8.40;7.70;;;;;19.60;100065.00;;;;2056986;28;20208;-45
2021/04/10 03:40:42;;;;;;;9.07;8.23;;;;;19.60;100074.00;;;;2065039;28;20594;-45
2021/04/10 03:41:43;;;;;;;8.80;8.03;;;;;19.60;100075.00;;;;2065028;28;20322;-45
2021/04/10 03:42:44;;;;;;;9.43;8.63;;;;;19.60;100066.00;;;;2049023;28;20224;-45
2021/04/10 03:43:44;;;;;;;8.50;7.80;;;;;19.60;100073.00;;;;2064008;28;20703;-46
2021/04/10 03:44:44;;;;;;;9.27;8.47;;;;;19.60;100068.00;;;;2074471;28;20233;-46
2021/04/10 03:45:45;;;;;;;8.07;7.37;;;;;19.60;100069.00;;;;2074345;28;20743;-46
2021/04/10 03:46:45;;;;;;;9.30;8.50;;;;;19.60;100067.00;;;;2065375;28;21078;-46
2021/04/10 03:47:46;;;;;;;9.23;8.43;;;;;19.60;100068.00;;;;2073272;28;20202;-46
2021/04/10 03:48:47;;;;;;;8.97;8.10;;;;;19.60;100066.00;;;;2075210;28;20210;-45
2021/04/10 03:49:47;;;;;;;8.57;7.90;;;;;19.60;100063.00;;;;2071960;28;20461;-45
2021/04/10 03:50:47;;;;;;;8.57;7.80;;;;;19.60;100069.00;;;;2072993;28;20616;-45
2021/04/10 03:51:48;;;;;;;8.93;8.23;;;;;19.60;100068.00;;;;2075039;28;20210;-45
2021/04/10 03:52:52;;;;;;;8.57;7.87;;;;;19.60;100067.00;;;;2075994;28;20256;-45
2021/04/10 03:53:52;;;;;;;9.32;8.52;;;;;19.60;100068.00;;;;2072589;28;20206;-45
2021/04/10 03:54:52;;;;;;;8.40;7.70;;;;;19.60;100062.00;;;;2073613;28;20978;-45
2021/04/10 03:55:53;;;;;;;7.60;7.00;;;;;19.50;100065.00;;;;2070667;28;20766;-45
2021/04/10 03:56:53;;;;;;;8.37;7.60;;;;;19.60;100068.00;;;;2073068;28;20253;-45
2021/04/10 03:57:53;;;;;;;9.77;8.87;;;;;19.60;100065.00;;;;2073912;28;20241;-45
2021/04/10 03:58:54;;;;;;;8.00;7.30;;;;;19.60;100066.00;;;;2073525;28;20218;-45
2021/04/10 03:59:54;;;;;;;8.37;7.70;;;;;19.60;100073.00;;;;2073891;28;20609;-45
2021/04/10 04:00:55;;;;;;;8.97;8.27;;;;;19.50;100070.00;;;;2073814;28;20330;-45
2021/04/10 04:01:55;;;;;;;8.67;7.87;;;;;19.60;100067.00;;;;2074205;28;20254;-45
2021/04/10 04:02:57;;;;;;;9.53;8.73;;;;;19.50;100067.00;;;;2076825;28;20210;-45
2021/04/10 04:03:57;;;;;;;9.20;8.40;;;;;19.50;100069.00;;;;2072776;28;20245;-45
2021/04/10 04:04:58;;;;;;;9.00;8.30;;;;;19.50;100073.00;;;;2073582;28;20210;-45
2021/04/10 04:05:58;;;;;;;7.83;7.23;;;;;19.50;100073.00;;;;2074219;28;20272;-45
2021/04/10 04:06:59;;;;;;;9.23;8.40;;;;;19.60;100067.00;;;;2072772;28;20210;-45
2021/04/10 04:07:59;;;;;;;8.20;7.60;;;;;19.50;100070.00;;;;2076872;28;20213;-45
2021/04/10 04:09:00;;;;;;;8.90;8.20;;;;;19.50;100076.00;;;;2073097;28;20455;-45
2021/04/10 04:10:00;;;;;;;8.80;8.10;;;;;19.50;100019.00;;;;2071347;28;20275;-45
2021/04/10 04:11:01;;;;;;;8.13;7.47;;;;;19.50;100076.00;;;;2074663;28;20221;-45
2021/04/10 04:12:01;;;;;;;9.07;8.27;;;;;19.50;100087.00;;;;2074320;28;20300;-45
2021/04/10 04:13:01;;;;;;;8.00;7.37;;;;;19.50;100079.00;;;;2075238;28;20233;-45
2021/04/10 04:14:02;;;;;;;8.67;7.90;;;;;19.50;100086.00;;;;2073055;28;20310;-45
2021/04/10 04:15:03;;;;;;;7.50;6.80;;;;;19.50;100079.00;;;;2074261;28;20813;-45
2021/04/10 04:16:04;;;;;;;8.32;7.60;;;;;19.50;100077.00;;;;2074390;28;20233;-45
2021/04/10 04:17:06;;;;;;;9.00;8.30;;;;;19.50;100080.00;;;;2074220;28;20211;-45
2021/04/10 04:18:06;;;;;;;8.18;7.47;;;;;19.50;100087.00;;;;2074076;28;20230;-45
2021/04/10 04:19:07;;;;;;;8.60;7.90;;;;;19.50;100086.00;;;;2075002;28;20692;-45
2021/04/10 04:20:07;;;;;;;8.50;7.80;;;;;19.50;100093.00;;;;2077424;28;20233;-45
2021/04/10 04:21:08;;;;;;;9.03;8.33;;;;;19.50;100097.00;;;;2079316;28;20627;-44
2021/04/10 04:22:08;;;;;;;9.43;8.63;;;;;19.50;100104.00;;;;2076818;28;20221;-45
2021/04/10 04:23:09;;;;;;;9.30;8.50;;;;;19.50;100104.00;;;;2073351;28;20215;-45
2021/04/10 04:24:09;;;;;;;8.60;7.90;;;;;19.50;100052.00;;;;2074546;28;20305;-45
2021/04/10 04:25:10;;;;;;;8.43;7.73;;;;;19.50;100123.00;;;;2075669;28;20246;-45
2021/04/10 04:26:10;;;;;;;8.30;7.55;;;;;19.50;100103.00;;;;2078651;28;20280;-45
2021/04/10 04:27:11;;;;;;;9.43;7.90;;;;;19.50;100101.00;;;;2074734;28;20353;-45
2021/04/10 04:28:11;;;;;;;8.87;8.10;;;;;19.50;100103.00;;;;2075652;28;20217;-45
2021/04/10 04:29:12;;;;;;;9.13;8.40;;;;;19.50;100096.00;;;;2074738;28;20225;-45
2021/04/10 04:30:13;;;;;;;8.98;8.18;;;;;19.50;100108.00;;;;2074597;28;20309;-45
2021/04/10 04:31:13;;;;;;;8.77;7.70;;;;;19.50;100106.00;;;;2074654;28;20228;-45
2021/04/10 04:32:14;;;;;;;8.43;7.73;;;;;19.50;100103.00;;;;2076008;28;20304;-45
2021/04/10 04:33:14;;;;;;;9.17;8.30;;;;;19.50;100103.00;;;;2079045;28;20343;-45
2021/04/10 04:34:14;;;;;;;8.87;8.07;;;;;19.50;100109.00;;;;2074368;28;20217;-45
2021/04/10 04:35:15;;;;;;;9.37;8.47;;;;;19.50;100108.00;;;;2075486;28;20214;-45
2021/04/10 04:36:15;;;;;;;8.63;7.93;;;;;19.50;100102.00;;;;2075479;28;20213;-45
2021/04/10 04:37:16;;;;;;;8.97;8.17;;;;;19.50;100105.00;;;;2075245;28;20220;-45
2021/04/10 04:38:16;;;;;;;8.37;7.60;;;;;19.50;100106.00;;;;2075511;28;20317;-45
2021/04/10 04:39:16;;;;;;;8.97;8.27;;;;;19.50;100108.00;;;;2075187;28;20215;-45
2021/04/10 04:40:17;;;;;;;9.00;8.30;;;;;19.40;100104.00;;;;2072283;28;20210;-45
2021/04/10 04:41:17;;;;;;;8.20;7.40;;;;;19.40;100109.00;;;;2074714;28;20219;-46
2021/04/10 04:42:18;;;;;;;8.93;8.13;;;;;19.50;100110.00;;;;2077056;28;20210;-45
2021/04/10 04:43:18;;;;;;;8.33;7.57;;;;;19.50;100112.00;;;;2077179;28;20237;-45
2021/04/10 04:44:18;;;;;;;8.60;7.80;;;;;19.50;100109.00;;;;2074291;28;20211;-45
2021/04/10 04:45:19;;;;;;;9.13;8.30;;;;;19.40;100105.00;;;;2075300;28;20272;-45
2021/04/10 04:46:19;;;;;;;9.47;8.60;;;;;19.40;100109.00;;;;2075412;28;20241;-45
2021/04/10 04:47:19;;;;;;;9.67;8.87;;;;;19.40;100106.00;;;;2074896;28;20211;-45
2021/04/10 04:48:20;;;;;;;9.23;8.43;;;;;19.40;100113.00;;;;2072968;28;20738;-45
2021/04/10 04:49:20;;;;;;;8.70;8.00;;;;;19.50;100107.00;;;;2073627;28;20296;-45
2021/04/10 04:50:21;;;;;;;8.17;7.37;;;;;19.40;100102.00;;;;2078213;28;20235;-45
2021/04/10 04:51:21;;;;;;;8.57;7.77;;;;;19.50;100112.00;;;;2078419;28;20679;-45
2021/04/10 04:52:21;;;;;;;9.20;8.50;;;;;19.40;100119.00;;;;2079244;28;20214;-45
2021/04/10 04:53:22;;;;;;;8.90;8.20;;;;;19.40;100114.00;;;;2072027;28;20218;-47
2021/04/10 04:54:22;;;;;;;9.30;8.60;;;;;19.40;100112.00;;;;2075235;28;20211;-45
2021/04/10 04:55:23;;;;;;;9.60;8.80;;;;;19.40;100104.00;;;;2074177;28;20215;-45
2021/04/10 04:56:24;;;;;;;9.50;8.70;;;;;19.40;100109.00;;;;2074086;28;20283;-45
2021/04/10 04:57:24;;;;;;;9.55;8.70;;;;;19.40;100116.00;;;;2074733;28;20253;-50
2021/04/10 04:58:24;;;;;;;8.87;8.07;;;;;19.40;100117.00;;;;2078491;28;20273;-46
2021/04/10 04:59:25;;;;;;;9.00;8.20;;;;;19.40;100115.00;;;;2074252;28;20218;-47
2021/04/10 05:00:25;;;;;;;9.30;8.50;;;;;19.40;100118.00;;;;2073692;28;20228;-46
2021/04/10 05:01:26;;;;;;;9.30;8.60;;;;;19.40;100119.00;;;;2074361;28;20671;-46
2021/04/10 05:02:26;;;;;;;9.90;9.10;;;;;19.40;100115.00;;;;2074529;28;20557;-45